sensor_id;sensor_type;location;lat;lon;timestamp;pressure;altitude;pressure_sealevel;temperature;humidity
6427;BME280;3246;42.664;23.308;2023-08-31T00:02:12;120715.88;;;-142.62;44.84
6427;BME280;3246;42.664;23.308;2023-08-31T00:04:39;120715.88;;;-142.62;45.04
6427;BME280;3246;42.664;23.308;2023-08-31T00:07:07;120715.88;;;-142.62;44.92
6427;BME280;3246;42.664;23.308;2023-08-31T00:09:34;120715.88;;;-142.62;44.95
6427;BME280;3246;42.664;23.308;2023-08-31T00:12:01;120715.88;;;-142.62;44.75
6427;BME280;3246;42.664;23.308;2023-08-31T00:14:28;120715.88;;;-142.62;44.69
6427;BME280;3246;42.664;23.308;2023-08-31T00:16:55;120715.88;;;-142.62;45.06
6427;BME280;3246;42.664;23.308;2023-08-31T00:19:23;120715.88;;;-142.62;45.19
6427;BME280;3246;42.664;23.308;2023-08-31T00:21:50;120715.88;;;-142.62;45.00
6427;BME280;3246;42.664;23.308;2023-08-31T00:24:18;120715.88;;;-142.62;44.90
6427;BME280;3246;42.664;23.308;2023-08-31T00:26:47;120715.88;;;-142.62;45.34
6427;BME280;3246;42.664;23.308;2023-08-31T00:29:16;120715.88;;;-142.62;45.40
6427;BME280;3246;42.664;23.308;2023-08-31T00:31:43;120715.88;;;-142.62;45.81
6427;BME280;3246;42.664;23.308;2023-08-31T00:34:10;120715.88;;;-142.62;46.03
6427;BME280;3246;42.664;23.308;2023-08-31T00:36:42;120715.88;;;-142.62;46.20
6427;BME280;3246;42.664;23.308;2023-08-31T00:39:09;120715.88;;;-142.62;46.42
6427;BME280;3246;42.664;23.308;2023-08-31T00:41:38;120715.88;;;-142.62;46.39
6427;BME280;3246;42.664;23.308;2023-08-31T00:44:05;120715.88;;;-142.62;46.84
6427;BME280;3246;42.664;23.308;2023-08-31T00:46:32;120715.88;;;-142.62;46.50
6427;BME280;3246;42.664;23.308;2023-08-31T00:49:00;120715.88;;;-142.62;46.77
6427;BME280;3246;42.664;23.308;2023-08-31T00:51:29;120715.88;;;-142.62;47.63
6427;BME280;3246;42.664;23.308;2023-08-31T00:53:56;120715.88;;;-142.62;47.53
6427;BME280;3246;42.664;23.308;2023-08-31T00:56:24;120715.88;;;-142.62;48.43
6427;BME280;3246;42.664;23.308;2023-08-31T00:58:52;120715.88;;;-142.62;48.59
6427;BME280;3246;42.664;23.308;2023-08-31T01:01:25;120715.88;;;-142.62;48.34
6427;BME280;3246;42.664;23.308;2023-08-31T01:04:06;120715.88;;;-142.62;48.09
6427;BME280;3246;42.664;23.308;2023-08-31T01:06:44;120715.88;;;-142.62;48.55
6427;BME280;3246;42.664;23.308;2023-08-31T01:09:20;120715.88;;;-142.62;48.26
6427;BME280;3246;42.664;23.308;2023-08-31T01:11:56;120715.88;;;-142.62;48.04
6427;BME280;3246;42.664;23.308;2023-08-31T01:14:32;120715.88;;;-142.62;47.94
6427;BME280;3246;42.664;23.308;2023-08-31T01:17:02;120715.88;;;-142.62;48.07
6427;BME280;3246;42.664;23.308;2023-08-31T01:19:44;120715.88;;;-142.62;48.05
6427;BME280;3246;42.664;23.308;2023-08-31T01:22:18;120715.88;;;-142.62;48.90
6427;BME280;3246;42.664;23.308;2023-08-31T01:24:49;120715.88;;;-142.62;48.83
6427;BME280;3246;42.664;23.308;2023-08-31T01:27:16;120715.88;;;-142.62;48.69
6427;BME280;3246;42.664;23.308;2023-08-31T01:29:43;120715.88;;;-142.62;48.47
6427;BME280;3246;42.664;23.308;2023-08-31T01:32:10;120715.88;;;-142.62;48.74
6427;BME280;3246;42.664;23.308;2023-08-31T01:34:37;120715.88;;;-142.62;48.45
6427;BME280;3246;42.664;23.308;2023-08-31T01:37:13;120715.88;;;-142.62;49.01
6427;BME280;3246;42.664;23.308;2023-08-31T01:39:45;120715.88;;;-142.62;48.89
6427;BME280;3246;42.664;23.308;2023-08-31T01:42:16;120715.88;;;-142.62;48.38
6427;BME280;3246;42.664;23.308;2023-08-31T01:44:45;120715.88;;;-142.62;48.50
6427;BME280;3246;42.664;23.308;2023-08-31T01:47:15;120715.88;;;-142.62;48.25
6427;BME280;3246;42.664;23.308;2023-08-31T01:49:42;120715.88;;;-142.62;48.85
6427;BME280;3246;42.664;23.308;2023-08-31T01:52:09;120715.88;;;-142.62;48.90
6427;BME280;3246;42.664;23.308;2023-08-31T01:54:36;120715.88;;;-142.62;48.75
6427;BME280;3246;42.664;23.308;2023-08-31T01:57:04;120715.88;;;-142.62;48.75
6427;BME280;3246;42.664;23.308;2023-08-31T01:59:33;120715.88;;;-142.62;49.17
6427;BME280;3246;42.664;23.308;2023-08-31T02:01:59;120715.88;;;-142.62;49.38
6427;BME280;3246;42.664;23.308;2023-08-31T02:04:26;120715.88;;;-142.62;49.48
6427;BME280;3246;42.664;23.308;2023-08-31T02:06:53;120715.88;;;-142.62;49.67
6427;BME280;3246;42.664;23.308;2023-08-31T02:09:20;120715.88;;;-142.62;49.70
6427;BME280;3246;42.664;23.308;2023-08-31T02:11:47;120715.88;;;-142.62;49.61
6427;BME280;3246;42.664;23.308;2023-08-31T02:14:14;120715.88;;;-142.62;49.87
6427;BME280;3246;42.664;23.308;2023-08-31T02:16:42;120715.88;;;-142.62;50.06
6427;BME280;3246;42.664;23.308;2023-08-31T02:19:08;120715.88;;;-142.62;49.91
6427;BME280;3246;42.664;23.308;2023-08-31T02:21:35;120715.88;;;-142.62;49.89
6427;BME280;3246;42.664;23.308;2023-08-31T02:24:02;120715.88;;;-142.62;49.85
6427;BME280;3246;42.664;23.308;2023-08-31T02:26:29;120715.88;;;-142.62;49.31
6427;BME280;3246;42.664;23.308;2023-08-31T02:28:56;120715.88;;;-142.62;49.28
6427;BME280;3246;42.664;23.308;2023-08-31T02:31:23;120715.88;;;-142.62;49.11
6427;BME280;3246;42.664;23.308;2023-08-31T02:33:51;120715.88;;;-142.62;48.69
6427;BME280;3246;42.664;23.308;2023-08-31T02:36:18;120715.88;;;-142.62;49.30
6427;BME280;3246;42.664;23.308;2023-08-31T02:38:46;120715.88;;;-142.62;49.17
6427;BME280;3246;42.664;23.308;2023-08-31T02:41:15;120715.88;;;-142.62;48.68
6427;BME280;3246;42.664;23.308;2023-08-31T02:43:42;120715.88;;;-142.62;48.64
6427;BME280;3246;42.664;23.308;2023-08-31T02:46:09;120715.88;;;-142.62;48.71
6427;BME280;3246;42.664;23.308;2023-08-31T02:48:36;120715.88;;;-142.62;49.17
6427;BME280;3246;42.664;23.308;2023-08-31T02:51:04;120715.88;;;-142.62;48.77
6427;BME280;3246;42.664;23.308;2023-08-31T02:53:31;120715.88;;;-142.62;49.34
6427;BME280;3246;42.664;23.308;2023-08-31T02:55:58;120715.88;;;-142.62;49.53
6427;BME280;3246;42.664;23.308;2023-08-31T02:58:25;120715.88;;;-142.62;49.15
6427;BME280;3246;42.664;23.308;2023-08-31T03:00:51;120715.88;;;-142.62;49.20
6427;BME280;3246;42.664;23.308;2023-08-31T03:03:18;120715.88;;;-142.62;49.61
6427;BME280;3246;42.664;23.308;2023-08-31T03:05:45;120715.88;;;-142.62;49.34
6427;BME280;3246;42.664;23.308;2023-08-31T03:08:13;120715.88;;;-142.62;49.38
6427;BME280;3246;42.664;23.308;2023-08-31T03:10:40;120715.88;;;-142.62;50.01
6427;BME280;3246;42.664;23.308;2023-08-31T03:13:07;120715.88;;;-142.62;49.07
6427;BME280;3246;42.664;23.308;2023-08-31T03:15:34;120715.88;;;-142.62;49.73
6427;BME280;3246;42.664;23.308;2023-08-31T03:18:01;120715.88;;;-142.62;49.25
6427;BME280;3246;42.664;23.308;2023-08-31T03:20:28;120715.88;;;-142.62;49.34
6427;BME280;3246;42.664;23.308;2023-08-31T03:22:54;120715.88;;;-142.62;49.77
6427;BME280;3246;42.664;23.308;2023-08-31T03:25:23;120715.88;;;-142.62;47.93
6427;BME280;3246;42.664;23.308;2023-08-31T03:27:49;120715.88;;;-142.62;48.66
6427;BME280;3246;42.664;23.308;2023-08-31T03:30:16;120715.88;;;-142.62;49.55
6427;BME280;3246;42.664;23.308;2023-08-31T03:32:43;120715.88;;;-142.62;49.45
6427;BME280;3246;42.664;23.308;2023-08-31T03:35:10;120715.88;;;-142.62;49.54
6427;BME280;3246;42.664;23.308;2023-08-31T03:37:37;120715.88;;;-142.62;49.48
6427;BME280;3246;42.664;23.308;2023-08-31T03:40:05;120715.88;;;-142.62;49.25
6427;BME280;3246;42.664;23.308;2023-08-31T03:42:33;120715.88;;;-142.62;48.87
6427;BME280;3246;42.664;23.308;2023-08-31T03:45:00;120715.88;;;-142.62;49.01
6427;BME280;3246;42.664;23.308;2023-08-31T03:47:28;120715.88;;;-142.62;49.56
6427;BME280;3246;42.664;23.308;2023-08-31T03:49:55;120715.88;;;-142.62;49.60
6427;BME280;3246;42.664;23.308;2023-08-31T03:52:22;120715.88;;;-142.62;49.34
6427;BME280;3246;42.664;23.308;2023-08-31T03:54:50;120715.88;;;-142.62;49.26
6427;BME280;3246;42.664;23.308;2023-08-31T03:57:17;120715.88;;;-142.62;49.78
6427;BME280;3246;42.664;23.308;2023-08-31T03:59:46;120715.88;;;-142.62;49.41
6427;BME280;3246;42.664;23.308;2023-08-31T04:02:13;120715.88;;;-142.62;49.42
6427;BME280;3246;42.664;23.308;2023-08-31T04:04:40;120715.88;;;-142.62;49.58
6427;BME280;3246;42.664;23.308;2023-08-31T04:07:06;120715.88;;;-142.62;49.35
6427;BME280;3246;42.664;23.308;2023-08-31T04:09:33;120715.88;;;-142.62;49.88
6427;BME280;3246;42.664;23.308;2023-08-31T04:12:00;120715.88;;;-142.62;49.57
6427;BME280;3246;42.664;23.308;2023-08-31T04:14:27;120715.88;;;-142.62;50.45
6427;BME280;3246;42.664;23.308;2023-08-31T04:16:55;120715.88;;;-142.62;51.41
6427;BME280;3246;42.664;23.308;2023-08-31T04:19:22;120715.88;;;-142.62;51.41
6427;BME280;3246;42.664;23.308;2023-08-31T04:21:49;120715.88;;;-142.62;51.54
6427;BME280;3246;42.664;23.308;2023-08-31T04:24:16;120715.88;;;-142.62;51.62
6427;BME280;3246;42.664;23.308;2023-08-31T04:26:43;120715.88;;;-142.62;52.11
6427;BME280;3246;42.664;23.308;2023-08-31T04:29:10;120715.88;;;-142.62;51.80
6427;BME280;3246;42.664;23.308;2023-08-31T04:31:37;120715.88;;;-142.62;52.44
6427;BME280;3246;42.664;23.308;2023-08-31T04:34:06;120715.88;;;-142.62;51.78
6427;BME280;3246;42.664;23.308;2023-08-31T04:36:33;120715.88;;;-142.62;52.11
6427;BME280;3246;42.664;23.308;2023-08-31T04:39:00;120715.88;;;-142.62;52.40
6427;BME280;3246;42.664;23.308;2023-08-31T04:41:27;120715.88;;;-142.62;52.08
6427;BME280;3246;42.664;23.308;2023-08-31T04:43:53;120715.88;;;-142.62;51.99
6427;BME280;3246;42.664;23.308;2023-08-31T04:46:20;120715.88;;;-142.62;52.19
6427;BME280;3246;42.664;23.308;2023-08-31T04:48:47;120715.88;;;-142.62;51.84
6427;BME280;3246;42.664;23.308;2023-08-31T04:51:32;120715.88;;;-142.62;52.33
6427;BME280;3246;42.664;23.308;2023-08-31T04:53:59;120715.88;;;-142.62;51.82
6427;BME280;3246;42.664;23.308;2023-08-31T04:56:29;120715.88;;;-142.62;51.82
6427;BME280;3246;42.664;23.308;2023-08-31T04:58:56;120715.88;;;-142.62;51.87
6427;BME280;3246;42.664;23.308;2023-08-31T05:01:23;120715.88;;;-142.62;52.04
6427;BME280;3246;42.664;23.308;2023-08-31T05:03:50;120715.88;;;-142.62;52.53
6427;BME280;3246;42.664;23.308;2023-08-31T05:06:17;120715.88;;;-142.62;51.97
6427;BME280;3246;42.664;23.308;2023-08-31T05:08:46;120715.88;;;-142.62;52.32
6427;BME280;3246;42.664;23.308;2023-08-31T05:11:13;120715.88;;;-142.62;51.50
6427;BME280;3246;42.664;23.308;2023-08-31T05:13:40;120715.88;;;-142.62;51.55
6427;BME280;3246;42.664;23.308;2023-08-31T05:16:07;120715.88;;;-142.62;51.89
6427;BME280;3246;42.664;23.308;2023-08-31T05:18:34;120715.88;;;-142.62;51.48
6427;BME280;3246;42.664;23.308;2023-08-31T05:21:01;120715.88;;;-142.62;51.40
6427;BME280;3246;42.664;23.308;2023-08-31T05:23:29;120715.88;;;-142.62;50.57
6427;BME280;3246;42.664;23.308;2023-08-31T05:25:57;120715.88;;;-142.62;50.78
6427;BME280;3246;42.664;23.308;2023-08-31T05:28:24;120715.88;;;-142.62;51.20
6427;BME280;3246;42.664;23.308;2023-08-31T05:30:52;120715.88;;;-142.62;51.25
6427;BME280;3246;42.664;23.308;2023-08-31T05:33:19;120715.88;;;-142.62;50.87
6427;BME280;3246;42.664;23.308;2023-08-31T05:35:47;120715.88;;;-142.62;50.96
6427;BME280;3246;42.664;23.308;2023-08-31T05:38:14;120715.88;;;-142.62;50.88
6427;BME280;3246;42.664;23.308;2023-08-31T05:40:41;120715.88;;;-142.62;49.15
6427;BME280;3246;42.664;23.308;2023-08-31T05:43:12;120715.88;;;-142.62;49.73
6427;BME280;3246;42.664;23.308;2023-08-31T05:45:39;120715.88;;;-142.62;50.09
6427;BME280;3246;42.664;23.308;2023-08-31T05:48:06;120715.88;;;-142.62;49.73
6427;BME280;3246;42.664;23.308;2023-08-31T05:50:34;120715.88;;;-142.62;50.64
6427;BME280;3246;42.664;23.308;2023-08-31T05:53:02;120715.88;;;-142.62;50.71
6427;BME280;3246;42.664;23.308;2023-08-31T05:55:29;120715.88;;;-142.62;50.68
6427;BME280;3246;42.664;23.308;2023-08-31T05:57:56;120715.88;;;-142.62;50.90
6427;BME280;3246;42.664;23.308;2023-08-31T06:00:24;120715.88;;;-142.62;50.34
6427;BME280;3246;42.664;23.308;2023-08-31T06:02:51;120715.88;;;-142.62;50.31
6427;BME280;3246;42.664;23.308;2023-08-31T06:05:19;120715.88;;;-142.62;49.97
6427;BME280;3246;42.664;23.308;2023-08-31T06:07:45;120715.88;;;-142.62;50.16
6427;BME280;3246;42.664;23.308;2023-08-31T06:10:12;120715.88;;;-142.62;49.60
6427;BME280;3246;42.664;23.308;2023-08-31T06:12:40;120715.88;;;-142.62;49.57
6427;BME280;3246;42.664;23.308;2023-08-31T06:15:07;120715.88;;;-142.62;49.59
6427;BME280;3246;42.664;23.308;2023-08-31T06:17:36;120715.88;;;-142.62;49.31
6427;BME280;3246;42.664;23.308;2023-08-31T06:20:03;120715.88;;;-142.62;49.14
6427;BME280;3246;42.664;23.308;2023-08-31T06:22:32;120715.88;;;-142.62;49.08
6427;BME280;3246;42.664;23.308;2023-08-31T06:24:59;120715.88;;;-142.62;48.96
6427;BME280;3246;42.664;23.308;2023-08-31T06:27:26;120715.88;;;-142.62;49.19
6427;BME280;3246;42.664;23.308;2023-08-31T06:29:52;120715.88;;;-142.62;48.96
6427;BME280;3246;42.664;23.308;2023-08-31T06:32:19;120715.88;;;-142.62;48.71
6427;BME280;3246;42.664;23.308;2023-08-31T06:34:47;120715.88;;;-142.62;49.32
6427;BME280;3246;42.664;23.308;2023-08-31T06:37:14;120715.88;;;-142.62;48.67
6427;BME280;3246;42.664;23.308;2023-08-31T06:39:41;120715.88;;;-142.62;48.85
6427;BME280;3246;42.664;23.308;2023-08-31T06:42:08;120715.88;;;-142.62;48.26
6427;BME280;3246;42.664;23.308;2023-08-31T06:44:34;120715.88;;;-142.62;47.92
6427;BME280;3246;42.664;23.308;2023-08-31T06:47:01;120715.88;;;-142.62;47.83
6427;BME280;3246;42.664;23.308;2023-08-31T06:49:29;120715.88;;;-142.62;47.86
6427;BME280;3246;42.664;23.308;2023-08-31T06:51:59;120715.88;;;-142.62;47.66
6427;BME280;3246;42.664;23.308;2023-08-31T06:54:28;120715.88;;;-142.62;47.55
6427;BME280;3246;42.664;23.308;2023-08-31T06:56:54;120715.88;;;-142.62;47.88
6427;BME280;3246;42.664;23.308;2023-08-31T06:59:21;120715.88;;;-142.62;48.16
6427;BME280;3246;42.664;23.308;2023-08-31T07:01:48;120715.88;;;-142.62;47.88
6427;BME280;3246;42.664;23.308;2023-08-31T07:04:15;120715.88;;;-142.62;48.19
6427;BME280;3246;42.664;23.308;2023-08-31T07:06:42;120715.88;;;-142.62;48.49
6427;BME280;3246;42.664;23.308;2023-08-31T07:09:10;120715.88;;;-142.62;48.36
6427;BME280;3246;42.664;23.308;2023-08-31T07:11:37;120715.88;;;-142.62;47.91
6427;BME280;3246;42.664;23.308;2023-08-31T07:14:04;120715.88;;;-142.62;47.75
6427;BME280;3246;42.664;23.308;2023-08-31T07:16:30;120715.88;;;-142.62;47.45
6427;BME280;3246;42.664;23.308;2023-08-31T07:18:57;120715.88;;;-142.62;46.60
6427;BME280;3246;42.664;23.308;2023-08-31T07:21:24;120715.88;;;-142.62;45.47
6427;BME280;3246;42.664;23.308;2023-08-31T07:23:52;120715.88;;;-142.62;45.94
6427;BME280;3246;42.664;23.308;2023-08-31T07:26:20;120715.88;;;-142.62;45.21
6427;BME280;3246;42.664;23.308;2023-08-31T07:28:48;120715.88;;;-142.62;44.08
6427;BME280;3246;42.664;23.308;2023-08-31T07:31:14;120715.88;;;-142.62;44.25
6427;BME280;3246;42.664;23.308;2023-08-31T07:33:42;120715.88;;;-142.62;44.52
6427;BME280;3246;42.664;23.308;2023-08-31T07:36:08;120715.88;;;-142.62;44.45
6427;BME280;3246;42.664;23.308;2023-08-31T07:38:35;120715.88;;;-142.62;44.42
6427;BME280;3246;42.664;23.308;2023-08-31T07:41:02;120715.88;;;-142.62;43.32
6427;BME280;3246;42.664;23.308;2023-08-31T07:43:31;120715.88;;;-142.62;43.32
6427;BME280;3246;42.664;23.308;2023-08-31T07:45:57;120715.88;;;-142.62;44.76
6427;BME280;3246;42.664;23.308;2023-08-31T07:48:24;120715.88;;;-142.62;44.42
6427;BME280;3246;42.664;23.308;2023-08-31T07:50:51;120715.88;;;-142.62;43.99
6427;BME280;3246;42.664;23.308;2023-08-31T07:53:18;120715.88;;;-142.62;43.87
6427;BME280;3246;42.664;23.308;2023-08-31T07:55:51;120715.88;;;-142.62;42.75
6427;BME280;3246;42.664;23.308;2023-08-31T07:58:19;120715.88;;;-142.62;41.96
6427;BME280;3246;42.664;23.308;2023-08-31T08:00:48;120715.88;;;-142.62;40.91
6427;BME280;3246;42.664;23.308;2023-08-31T08:03:14;120715.88;;;-142.62;40.91
6427;BME280;3246;42.664;23.308;2023-08-31T08:05:41;120715.88;;;-142.62;40.83
6427;BME280;3246;42.664;23.308;2023-08-31T08:08:08;120715.88;;;-142.62;40.84
6427;BME280;3246;42.664;23.308;2023-08-31T08:10:35;120715.88;;;-142.62;40.92
6427;BME280;3246;42.664;23.308;2023-08-31T08:13:02;120715.88;;;-142.62;41.13
6427;BME280;3246;42.664;23.308;2023-08-31T08:15:29;120715.88;;;-142.62;41.15
6427;BME280;3246;42.664;23.308;2023-08-31T08:17:58;120715.88;;;-142.62;41.40
6427;BME280;3246;42.664;23.308;2023-08-31T08:20:25;120715.88;;;-142.62;41.23
6427;BME280;3246;42.664;23.308;2023-08-31T08:22:51;120715.88;;;-142.62;41.18
6427;BME280;3246;42.664;23.308;2023-08-31T08:25:19;120715.88;;;-142.62;40.85
6427;BME280;3246;42.664;23.308;2023-08-31T08:27:46;120715.88;;;-142.62;40.50
6427;BME280;3246;42.664;23.308;2023-08-31T08:30:13;120715.88;;;-142.62;40.11
6427;BME280;3246;42.664;23.308;2023-08-31T08:32:40;120715.88;;;-142.62;40.02
6427;BME280;3246;42.664;23.308;2023-08-31T08:35:09;120715.88;;;-142.62;38.58
6427;BME280;3246;42.664;23.308;2023-08-31T08:37:36;120715.88;;;-142.62;37.36
6427;BME280;3246;42.664;23.308;2023-08-31T08:40:03;120715.88;;;-142.62;36.45
6427;BME280;3246;42.664;23.308;2023-08-31T08:42:32;120715.88;;;-142.62;35.97
6427;BME280;3246;42.664;23.308;2023-08-31T08:45:01;120715.88;;;-142.62;35.93
6427;BME280;3246;42.664;23.308;2023-08-31T08:47:30;120715.88;;;-142.62;36.33
6427;BME280;3246;42.664;23.308;2023-08-31T08:49:58;120715.88;;;-142.62;34.08
6427;BME280;3246;42.664;23.308;2023-08-31T08:52:28;120715.88;;;-142.62;33.62
6427;BME280;3246;42.664;23.308;2023-08-31T08:54:56;120715.88;;;-142.62;34.14
6427;BME280;3246;42.664;23.308;2023-08-31T08:57:24;120715.88;;;-142.62;33.70
6427;BME280;3246;42.664;23.308;2023-08-31T08:59:51;120715.88;;;-142.62;33.65
6427;BME280;3246;42.664;23.308;2023-08-31T09:02:17;120715.88;;;-142.62;34.03
6427;BME280;3246;42.664;23.308;2023-08-31T09:04:44;120715.88;;;-142.62;33.90
6427;BME280;3246;42.664;23.308;2023-08-31T09:07:11;120715.88;;;-142.62;34.30
6427;BME280;3246;42.664;23.308;2023-08-31T09:09:53;120715.88;;;-142.62;34.65
6427;BME280;3246;42.664;23.308;2023-08-31T09:12:22;120715.88;;;-142.62;34.07
6427;BME280;3246;42.664;23.308;2023-08-31T09:14:57;120715.88;;;-142.62;34.65
6427;BME280;3246;42.664;23.308;2023-08-31T09:17:25;120715.88;;;-142.62;35.33
6427;BME280;3246;42.664;23.308;2023-08-31T09:19:59;120715.88;;;-142.62;35.60
6427;BME280;3246;42.664;23.308;2023-08-31T09:22:26;120715.88;;;-142.62;35.84
6427;BME280;3246;42.664;23.308;2023-08-31T09:24:54;120715.88;;;-142.62;35.09
6427;BME280;3246;42.664;23.308;2023-08-31T09:27:21;120715.88;;;-142.62;35.39
6427;BME280;3246;42.664;23.308;2023-08-31T09:29:50;120715.88;;;-142.62;35.22
6427;BME280;3246;42.664;23.308;2023-08-31T09:32:17;120715.88;;;-142.62;35.94
6427;BME280;3246;42.664;23.308;2023-08-31T09:34:44;120715.88;;;-142.62;36.08
6427;BME280;3246;42.664;23.308;2023-08-31T09:37:11;120715.88;;;-142.62;35.86
6427;BME280;3246;42.664;23.308;2023-08-31T09:39:39;120715.88;;;-142.62;35.86
6427;BME280;3246;42.664;23.308;2023-08-31T09:42:07;120715.88;;;-142.62;36.01
6427;BME280;3246;42.664;23.308;2023-08-31T09:44:40;120715.88;;;-142.62;35.55
6427;BME280;3246;42.664;23.308;2023-08-31T09:47:07;120715.88;;;-142.62;36.16
6427;BME280;3246;42.664;23.308;2023-08-31T09:49:36;120715.88;;;-142.62;36.24
6427;BME280;3246;42.664;23.308;2023-08-31T09:52:04;120715.88;;;-142.62;35.51
6427;BME280;3246;42.664;23.308;2023-08-31T09:54:34;120715.88;;;-142.62;33.98
6427;BME280;3246;42.664;23.308;2023-08-31T09:57:01;120715.88;;;-142.62;33.54
6427;BME280;3246;42.664;23.308;2023-08-31T09:59:31;120715.88;;;-142.62;33.34
6427;BME280;3246;42.664;23.308;2023-08-31T10:01:59;120715.88;;;-142.62;33.47
6427;BME280;3246;42.664;23.308;2023-08-31T10:04:29;120715.88;;;-142.62;33.22
6427;BME280;3246;42.664;23.308;2023-08-31T10:06:57;120715.88;;;-142.62;33.26
6427;BME280;3246;42.664;23.308;2023-08-31T10:09:25;120715.88;;;-142.62;33.78
6427;BME280;3246;42.664;23.308;2023-08-31T10:11:53;120715.88;;;-142.62;33.17
6427;BME280;3246;42.664;23.308;2023-08-31T10:14:21;120715.88;;;-142.62;31.92
6427;BME280;3246;42.664;23.308;2023-08-31T10:16:50;120715.88;;;-142.62;31.40
6427;BME280;3246;42.664;23.308;2023-08-31T10:19:19;120715.88;;;-142.62;31.56
6427;BME280;3246;42.664;23.308;2023-08-31T10:21:46;120715.88;;;-142.62;31.53
6427;BME280;3246;42.664;23.308;2023-08-31T10:24:13;120715.88;;;-142.62;31.28
6427;BME280;3246;42.664;23.308;2023-08-31T10:26:39;120715.88;;;-142.62;31.78
6427;BME280;3246;42.664;23.308;2023-08-31T10:29:25;120715.88;;;-142.62;31.90
6427;BME280;3246;42.664;23.308;2023-08-31T10:31:54;120715.88;;;-142.62;32.03
6427;BME280;3246;42.664;23.308;2023-08-31T10:34:34;120715.88;;;-142.62;32.41
6427;BME280;3246;42.664;23.308;2023-08-31T10:37:02;120715.88;;;-142.62;33.11
6427;BME280;3246;42.664;23.308;2023-08-31T10:39:37;120715.88;;;-142.62;33.07
6427;BME280;3246;42.664;23.308;2023-08-31T10:42:05;120715.88;;;-142.62;33.62
6427;BME280;3246;42.664;23.308;2023-08-31T10:44:31;120715.88;;;-142.62;33.14
6427;BME280;3246;42.664;23.308;2023-08-31T10:47:03;120715.88;;;-142.62;33.38
6427;BME280;3246;42.664;23.308;2023-08-31T10:49:30;120715.88;;;-142.62;33.37
6427;BME280;3246;42.664;23.308;2023-08-31T10:52:14;120715.88;;;-142.62;33.62
6427;BME280;3246;42.664;23.308;2023-08-31T10:54:42;120715.88;;;-142.62;33.49
6427;BME280;3246;42.664;23.308;2023-08-31T10:57:08;120715.88;;;-142.62;33.14
6427;BME280;3246;42.664;23.308;2023-08-31T10:59:42;120715.88;;;-142.62;32.66
6427;BME280;3246;42.664;23.308;2023-08-31T11:02:27;120715.88;;;-142.62;33.73
6427;BME280;3246;42.664;23.308;2023-08-31T11:04:56;120715.88;;;-142.62;33.96
6427;BME280;3246;42.664;23.308;2023-08-31T11:07:27;120715.88;;;-142.62;34.50
6427;BME280;3246;42.664;23.308;2023-08-31T11:10:10;120715.88;;;-142.62;34.64
6427;BME280;3246;42.664;23.308;2023-08-31T11:12:37;120715.88;;;-142.62;34.57
6427;BME280;3246;42.664;23.308;2023-08-31T11:15:05;120715.88;;;-142.62;34.04
6427;BME280;3246;42.664;23.308;2023-08-31T11:17:34;120715.88;;;-142.62;34.22
6427;BME280;3246;42.664;23.308;2023-08-31T11:20:01;120715.88;;;-142.62;33.93
6427;BME280;3246;42.664;23.308;2023-08-31T11:22:31;120715.88;;;-142.62;33.48
6427;BME280;3246;42.664;23.308;2023-08-31T11:24:58;120715.88;;;-142.62;33.54
6427;BME280;3246;42.664;23.308;2023-08-31T11:27:25;120715.88;;;-142.62;33.84
6427;BME280;3246;42.664;23.308;2023-08-31T11:29:52;120715.88;;;-142.62;33.91
6427;BME280;3246;42.664;23.308;2023-08-31T11:32:18;120715.88;;;-142.62;33.54
6427;BME280;3246;42.664;23.308;2023-08-31T11:34:46;120715.88;;;-142.62;33.96
6427;BME280;3246;42.664;23.308;2023-08-31T11:37:13;120715.88;;;-142.62;33.94
6427;BME280;3246;42.664;23.308;2023-08-31T11:39:43;120715.88;;;-142.62;34.79
6427;BME280;3246;42.664;23.308;2023-08-31T11:42:16;120715.88;;;-142.62;35.92
6427;BME280;3246;42.664;23.308;2023-08-31T11:44:44;120715.88;;;-142.62;36.21
6427;BME280;3246;42.664;23.308;2023-08-31T11:47:12;120715.88;;;-142.62;36.55
6427;BME280;3246;42.664;23.308;2023-08-31T11:49:39;120715.88;;;-142.62;35.72
6427;BME280;3246;42.664;23.308;2023-08-31T11:52:09;120715.88;;;-142.62;36.16
6427;BME280;3246;42.664;23.308;2023-08-31T11:54:37;120715.88;;;-142.62;36.79
6427;BME280;3246;42.664;23.308;2023-08-31T11:57:06;120715.88;;;-142.62;36.15
6427;BME280;3246;42.664;23.308;2023-08-31T11:59:35;120715.88;;;-142.62;35.67
6427;BME280;3246;42.664;23.308;2023-08-31T12:02:05;120715.88;;;-142.62;36.21
6427;BME280;3246;42.664;23.308;2023-08-31T12:04:33;120715.88;;;-142.62;35.95
6427;BME280;3246;42.664;23.308;2023-08-31T12:07:02;120715.88;;;-142.62;35.83
6427;BME280;3246;42.664;23.308;2023-08-31T12:09:32;120715.88;;;-142.62;36.14
6427;BME280;3246;42.664;23.308;2023-08-31T12:11:59;120715.88;;;-142.62;36.02
6427;BME280;3246;42.664;23.308;2023-08-31T12:14:27;120715.88;;;-142.62;36.22
6427;BME280;3246;42.664;23.308;2023-08-31T12:17:01;120715.88;;;-142.62;36.16
6427;BME280;3246;42.664;23.308;2023-08-31T12:19:29;120715.88;;;-142.62;36.15
6427;BME280;3246;42.664;23.308;2023-08-31T12:21:56;120715.88;;;-142.62;35.97
6427;BME280;3246;42.664;23.308;2023-08-31T12:24:23;120715.88;;;-142.62;36.26
6427;BME280;3246;42.664;23.308;2023-08-31T12:26:52;120715.88;;;-142.62;35.74
6427;BME280;3246;42.664;23.308;2023-08-31T12:29:20;120715.88;;;-142.62;35.54
6427;BME280;3246;42.664;23.308;2023-08-31T12:31:48;120715.88;;;-142.62;34.97
6427;BME280;3246;42.664;23.308;2023-08-31T12:34:15;120715.88;;;-142.62;35.11
6427;BME280;3246;42.664;23.308;2023-08-31T12:36:41;120715.88;;;-142.62;35.07
6427;BME280;3246;42.664;23.308;2023-08-31T12:39:08;120715.88;;;-142.62;34.82
6427;BME280;3246;42.664;23.308;2023-08-31T12:41:36;120715.88;;;-142.62;34.77
6427;BME280;3246;42.664;23.308;2023-08-31T12:44:04;120715.88;;;-142.62;34.73
6427;BME280;3246;42.664;23.308;2023-08-31T12:46:31;120715.88;;;-142.62;34.72